Kilauea, Hawaii
Current Conditions -  °F | °C
As of 2:53 PM on Friday 21 Nov 2014 (Local Time) from PHLI Reporting Station
Few Clouds Few Clouds  
Wind Chill: 82°   Ceiling: Unl
Heat Index: 84°   Visibility: 10mi
Dew Point: 65°   Wind: 13mph
Humidity: 56%   Direction: 60°ENE
Pressure: 30"   Gusts: NA
Location:  22.2°N, 159.4°W
Report Text: PHLI 220053Z 06011KT 10SM FEW050 28/18 A3000 RMK AO2 SLP157 T02780183 $
Loading
Personal Weather Stations






























Interactive Weather Map New forecast layout! Learn more

10-Day Weather Forecast

Advertisements
Track Severe Weather on mobile